Time;durP1;ratioP1;P1;durP2;ratioP2;P2;SDS_P1;SDS_P2;PMS_P1;PMS_P2;Temp;Humidity;BMP_temperature;BMP_pressure;BME280_temperature;BME280_humidity;BME280_pressure;Samples;Min_cycle;Max_cycle;Signal;HPM_P1;HPM_P2
2021/05/31 00:01:12;;;;;;;11.63;3.83;;;;;;;;;;5041533;28;20048;-50
2021/05/31 00:03:38;;;;;;;8.85;3.67;;;;;;;;;;5037614;28;20044;-55
2021/05/31 00:06:05;;;;;;;10.80;3.95;;;;;;;;;;5043216;28;20045;-56
2021/05/31 00:08:32;;;;;;;7.50;3.35;;;;;;;;;;5038174;28;20053;-52
2021/05/31 00:10:58;;;;;;;8.60;3.63;;;;;;;;;;5040324;28;20051;-51
2021/05/31 00:13:24;;;;;;;7.47;3.58;;;;;;;;;;5036507;28;20045;-49
2021/05/31 00:15:50;;;;;;;10.77;3.80;;;;;;;;;;5040885;28;20053;-50
2021/05/31 00:18:16;;;;;;;8.90;3.90;;;;;;;;;;5036535;28;20053;-51
2021/05/31 00:20:44;;;;;;;16.52;3.95;;;;;;;;;;5038647;28;20034;-50
2021/05/31 00:23:11;;;;;;;9.10;3.85;;;;;;;;;;5039194;28;20045;-56
2021/05/31 00:25:37;;;;;;;7.97;3.58;;;;;;;;;;5019782;28;20033;-53
2021/05/31 00:28:03;;;;;;;8.52;3.90;;;;;;;;;;5027026;28;20051;-53
2021/05/31 00:30:29;;;;;;;13.10;3.88;;;;;;;;;;5034263;28;20050;-51
2021/05/31 00:32:55;;;;;;;9.35;3.92;;;;;;;;;;5042141;28;20053;-51
2021/05/31 00:35:21;;;;;;;13.65;3.80;;;;;;;;;;5037958;28;20045;-53
2021/05/31 00:37:47;;;;;;;12.15;4.22;;;;;;;;;;5031871;28;20037;-53
2021/05/31 00:40:16;;;;;;;12.88;4.10;;;;;;;;;;5028253;28;20068;-52
2021/05/31 00:42:42;;;;;;;10.77;3.83;;;;;;;;;;5042800;28;20044;-53
2021/05/31 00:45:10;;;;;;;10.60;4.32;;;;;;;;;;5032155;28;20135;-51
2021/05/31 00:47:36;;;;;;;12.75;4.57;;;;;;;;;;5023618;28;20161;-53
2021/05/31 00:50:05;;;;;;;14.98;4.18;;;;;;;;;;5022888;28;20045;-51
2021/05/31 00:52:31;;;;;;;10.45;4.18;;;;;;;;;;5043107;28;20041;-54
2021/05/31 00:54:57;;;;;;;13.10;4.55;;;;;;;;;;5023423;28;20045;-52
2021/05/31 00:57:24;;;;;;;12.85;4.18;;;;;;;;;;5042904;28;20149;-51
2021/05/31 00:59:50;;;;;;;11.98;4.50;;;;;;;;;;5040660;28;20029;-51
2021/05/31 01:02:16;;;;;;;11.55;4.40;;;;;;;;;;5023031;28;20033;-50
2021/05/31 01:04:42;;;;;;;10.88;4.35;;;;;;;;;;5024063;28;20074;-50
2021/05/31 01:07:09;;;;;;;9.55;3.88;;;;;;;;;;5025359;28;20041;-52
2021/05/31 01:09:45;;;;;;;11.15;4.13;;;;;;;;;;5026321;28;20042;-49
2021/05/31 01:12:18;;;;;;;12.77;4.47;;;;;;;;;;5023139;28;20029;-53
2021/05/31 01:14:46;;;;;;;13.45;4.40;;;;;;;;;;5025707;28;20045;-52
2021/05/31 01:17:15;;;;;;;14.15;4.78;;;;;;;;;;5033402;28;20045;-54
2021/05/31 01:20:01;;;;;;;9.88;4.28;;;;;;;;;;5042764;28;20122;-53
2021/05/31 01:22:29;;;;;;;13.30;4.30;;;;;;;;;;5027336;28;20039;-54
2021/05/31 01:25:02;;;;;;;10.33;4.27;;;;;;;;;;5023693;28;20041;-51
2021/05/31 01:27:36;;;;;;;8.23;4.18;;;;;;;;;;5022803;28;20278;-49
2021/05/31 01:30:05;;;;;;;18.25;4.53;;;;;;;;;;5054718;28;20036;-54
2021/05/31 01:32:34;;;;;;;12.07;4.47;;;;;;;;;;5045326;28;20073;-51
2021/05/31 01:35:01;;;;;;;12.13;4.57;;;;;;;;;;5043078;28;20037;-54
2021/05/31 01:37:28;;;;;;;13.80;4.93;;;;;;;;;;5036333;28;20055;-54
2021/05/31 01:40:00;;;;;;;9.90;4.50;;;;;;;;;;5043679;28;20052;-53
2021/05/31 01:42:27;;;;;;;9.93;4.75;;;;;;;;;;5029223;28;20041;-55
2021/05/31 01:44:53;;;;;;;18.05;4.82;;;;;;;;;;5041428;28;20041;-54
2021/05/31 01:47:21;;;;;;;12.65;4.78;;;;;;;;;;5038065;28;20099;-51
2021/05/31 01:49:48;;;;;;;11.43;4.50;;;;;;;;;;5044027;28;20033;-48
2021/05/31 01:52:14;;;;;;;9.77;5.07;;;;;;;;;;5037793;28;20055;-51
2021/05/31 01:54:40;;;;;;;14.85;5.57;;;;;;;;;;5041955;28;20041;-49
2021/05/31 01:57:07;;;;;;;10.13;4.85;;;;;;;;;;5040146;28;20045;-54
2021/05/31 01:59:33;;;;;;;14.20;5.20;;;;;;;;;;5042671;28;20045;-53
2021/05/31 02:02:00;;;;;;;11.07;4.63;;;;;;;;;;5045463;28;20052;-48
2021/05/31 02:04:27;;;;;;;14.15;5.25;;;;;;;;;;5056972;28;20064;-52
2021/05/31 02:06:53;;;;;;;12.77;5.25;;;;;;;;;;5044106;28;20037;-53
2021/05/31 02:09:21;;;;;;;11.40;5.00;;;;;;;;;;5038592;28;20041;-50
2021/05/31 02:11:51;;;;;;;16.67;5.72;;;;;;;;;;5042011;28;20085;-50
2021/05/31 02:14:20;;;;;;;10.35;4.97;;;;;;;;;;5052654;28;20036;-49
2021/05/31 02:16:50;;;;;;;16.45;6.15;;;;;;;;;;5061815;28;20052;-48
2021/05/31 02:19:19;;;;;;;16.23;6.22;;;;;;;;;;5039940;28;20043;-53
2021/05/31 02:21:48;;;;;;;18.23;5.78;;;;;;;;;;5044513;28;20120;-52
2021/05/31 02:24:15;;;;;;;17.80;6.20;;;;;;;;;;5038019;28;20029;-54
2021/05/31 02:26:40;;;;;;;12.75;5.45;;;;;;;;;;5041438;28;20158;-55
2021/05/31 02:29:07;;;;;;;17.38;6.35;;;;;;;;;;5038857;28;20045;-52
2021/05/31 02:31:33;;;;;;;14.90;6.30;;;;;;;;;;5040516;28;20049;-51
2021/05/31 02:33:59;;;;;;;20.98;5.85;;;;;;;;;;5041948;28;20129;-50
2021/05/31 02:36:25;;;;;;;13.23;6.25;;;;;;;;;;5044989;28;20060;-50
2021/05/31 02:38:53;;;;;;;13.40;5.90;;;;;;;;;;5041674;28;20278;-51
2021/05/31 02:41:19;;;;;;;15.60;5.82;;;;;;;;;;5044487;28;20048;-52
2021/05/31 02:43:45;;;;;;;19.25;6.90;;;;;;;;;;5044614;28;20040;-54
2021/05/31 02:46:11;;;;;;;13.93;6.00;;;;;;;;;;5042197;28;20089;-53
2021/05/31 02:48:37;;;;;;;15.00;6.32;;;;;;;;;;5063310;28;20048;-52
2021/05/31 02:51:03;;;;;;;13.63;5.82;;;;;;;;;;5058895;28;20063;-52
2021/05/31 02:53:30;;;;;;;13.55;6.20;;;;;;;;;;5063228;28;20041;-52
2021/05/31 02:55:59;;;;;;;17.42;7.63;;;;;;;;;;5040984;28;20048;-52
2021/05/31 02:58:25;;;;;;;17.15;6.38;;;;;;;;;;5044430;28;20121;-51
2021/05/31 03:00:51;;;;;;;15.55;6.65;;;;;;;;;;5037508;28;20061;-52
2021/05/31 03:03:17;;;;;;;19.77;6.50;;;;;;;;;;5041584;28;20231;-53
2021/05/31 03:05:43;;;;;;;15.85;6.18;;;;;;;;;;5038529;28;20057;-52
2021/05/31 03:08:09;;;;;;;15.23;6.25;;;;;;;;;;5041435;28;20041;-49
2021/05/31 03:10:35;;;;;;;14.05;6.22;;;;;;;;;;5042392;28;20092;-50
2021/05/31 03:13:03;;;;;;;11.82;5.38;;;;;;;;;;5045577;28;20041;-53
2021/05/31 03:15:29;;;;;;;16.60;6.18;;;;;;;;;;5041440;28;20064;-54
2021/05/31 03:17:55;;;;;;;14.07;6.30;;;;;;;;;;5047369;28;20044;-51
2021/05/31 03:20:23;;;;;;;15.27;6.55;;;;;;;;;;5041417;28;20029;-52
2021/05/31 03:22:49;;;;;;;15.40;6.22;;;;;;;;;;5044597;28;20065;-53
2021/05/31 03:25:15;;;;;;;15.02;6.10;;;;;;;;;;5045837;28;20033;-46
2021/05/31 03:27:41;;;;;;;13.25;6.50;;;;;;;;;;5042468;28;20048;-52
2021/05/31 03:30:10;;;;;;;12.68;6.32;;;;;;;;;;5045033;28;20033;-49
2021/05/31 03:32:36;;;;;;;17.75;6.07;;;;;;;;;;5058888;28;20045;-50
2021/05/31 03:35:03;;;;;;;16.98;6.60;;;;;;;;;;5044683;28;20125;-51
2021/05/31 03:37:29;;;;;;;14.35;5.35;;;;;;;;;;5036854;28;20049;-48
2021/05/31 03:39:55;;;;;;;16.88;6.57;;;;;;;;;;5039834;28;20045;-49
2021/05/31 03:42:22;;;;;;;18.85;6.25;;;;;;;;;;5058126;28;20047;-51
2021/05/31 03:44:48;;;;;;;21.52;7.53;;;;;;;;;;5044587;28;20037;-51
2021/05/31 03:47:15;;;;;;;14.68;6.80;;;;;;;;;;5038659;28;20047;-50
2021/05/31 03:49:41;;;;;;;16.80;7.05;;;;;;;;;;5043862;28;20028;-49
2021/05/31 03:52:07;;;;;;;14.85;7.07;;;;;;;;;;5039387;28;20134;-50
2021/05/31 03:54:33;;;;;;;18.90;7.80;;;;;;;;;;5044921;28;20053;-56
2021/05/31 03:56:59;;;;;;;22.55;7.82;;;;;;;;;;5040309;28;20091;-53
2021/05/31 03:59:25;;;;;;;20.20;7.50;;;;;;;;;;5045191;28;20033;-55
2021/05/31 04:01:52;;;;;;;18.05;7.57;;;;;;;;;;5040622;28;20048;-50
2021/05/31 04:04:20;;;;;;;17.35;7.60;;;;;;;;;;5042969;28;20047;-53
2021/05/31 04:07:21;;;;;;;18.00;8.05;;;;;;;;;;5044787;28;20044;-52
2021/05/31 04:12:28;;;;;;;22.05;7.80;;;;;;;;;;5037244;28;20037;-53
2021/05/31 04:14:54;;;;;;;18.92;7.95;;;;;;;;;;5045094;28;20033;-55
2021/05/31 04:17:20;;;;;;;22.23;8.25;;;;;;;;;;5044585;28;20037;-51
2021/05/31 04:19:48;;;;;;;17.23;8.00;;;;;;;;;;5038498;28;20025;-49
2021/05/31 04:22:14;;;;;;;21.05;8.02;;;;;;;;;;5044306;28;20060;-51
2021/05/31 04:24:40;;;;;;;16.75;8.15;;;;;;;;;;5056743;28;20045;-54
2021/05/31 04:27:06;;;;;;;20.42;7.50;;;;;;;;;;5043912;28;20057;-53
2021/05/31 04:29:35;;;;;;;16.00;7.68;;;;;;;;;;5036527;28;20052;-49
2021/05/31 04:32:02;;;;;;;18.10;8.23;;;;;;;;;;5037862;28;20103;-49
2021/05/31 04:34:28;;;;;;;18.75;8.77;;;;;;;;;;5039040;28;20046;-50
2021/05/31 04:36:55;;;;;;;19.75;8.30;;;;;;;;;;5059717;28;20064;-52
2021/05/31 04:39:21;;;;;;;18.02;7.90;;;;;;;;;;5035227;28;20037;-49
2021/05/31 04:41:48;;;;;;;20.83;8.43;;;;;;;;;;5042798;28;20053;-50
2021/05/31 04:44:14;;;;;;;17.77;7.97;;;;;;;;;;5039074;28;20117;-49
2021/05/31 04:46:40;;;;;;;21.02;8.13;;;;;;;;;;5058871;28;20052;-53
2021/05/31 04:49:06;;;;;;;18.55;8.32;;;;;;;;;;5038627;28;20071;-49
2021/05/31 04:51:32;;;;;;;20.63;8.10;;;;;;;;;;5045446;28;20083;-52
2021/05/31 04:54:00;;;;;;;15.30;8.20;;;;;;;;;;5042140;28;20044;-50
2021/05/31 04:56:26;;;;;;;17.10;8.35;;;;;;;;;;5042376;28;20047;-48
2021/05/31 04:58:53;;;;;;;20.10;8.95;;;;;;;;;;5043348;28;20037;-49
2021/05/31 05:01:19;;;;;;;20.02;8.80;;;;;;;;;;5035145;28;20077;-55
2021/05/31 05:03:45;;;;;;;22.80;8.63;;;;;;;;;;5038237;28;20044;-55
2021/05/31 05:06:11;;;;;;;19.52;7.35;;;;;;;;;;5024600;28;20057;-52
2021/05/31 05:08:37;;;;;;;19.90;8.32;;;;;;;;;;5038424;28;20134;-55
2021/05/31 05:11:04;;;;;;;20.50;8.02;;;;;;;;;;5025457;28;20041;-53
2021/05/31 05:13:30;;;;;;;15.75;7.72;;;;;;;;;;5057241;28;20037;-56
2021/05/31 05:15:56;;;;;;;18.75;8.52;;;;;;;;;;5036322;28;20041;-55
2021/05/31 05:18:22;;;;;;;21.05;7.93;;;;;;;;;;5039327;28;20033;-55
2021/05/31 05:20:48;;;;;;;19.90;8.68;;;;;;;;;;5031778;28;20084;-49
2021/05/31 05:23:14;;;;;;;21.95;8.43;;;;;;;;;;5041126;28;20051;-56
2021/05/31 05:25:40;;;;;;;15.75;7.47;;;;;;;;;;5055885;28;20052;-53
2021/05/31 05:28:07;;;;;;;17.85;7.82;;;;;;;;;;5058533;28;20114;-56
2021/05/31 05:30:37;;;;;;;26.67;7.70;;;;;;;;;;5053805;28;20113;-53
2021/05/31 05:33:03;;;;;;;28.88;12.43;;;;;;;;;;5043513;28;20138;-55
2021/05/31 05:35:33;;;;;;;25.90;12.43;;;;;;;;;;5039732;28;20045;-54
2021/05/31 05:38:08;;;;;;;18.52;8.68;;;;;;;;;;5040813;28;20048;-49
2021/05/31 05:43:41;;;;;;;15.48;7.88;;;;;;;;;;5057935;28;20093;-55
2021/05/31 05:46:25;;;;;;;18.42;7.55;;;;;;;;;;5054537;28;20053;-51
2021/05/31 05:48:52;;;;;;;19.73;7.45;;;;;;;;;;5040938;28;20037;-55
2021/05/31 05:51:18;;;;;;;14.40;6.90;;;;;;;;;;5038213;28;20077;-55
2021/05/31 05:53:46;;;;;;;15.80;6.78;;;;;;;;;;5038059;28;20052;-52
2021/05/31 05:56:12;;;;;;;14.23;6.53;;;;;;;;;;5054272;28;20045;-56
2021/05/31 05:58:41;;;;;;;20.80;7.50;;;;;;;;;;5036188;28;20103;-55
2021/05/31 06:01:08;;;;;;;16.35;6.70;;;;;;;;;;5032794;28;20049;-52
2021/05/31 06:03:34;;;;;;;27.25;8.70;;;;;;;;;;5024971;28;20052;-55
2021/05/31 06:06:00;;;;;;;15.02;6.70;;;;;;;;;;5035259;28;20038;-51
2021/05/31 06:08:26;;;;;;;14.25;6.65;;;;;;;;;;5037557;28;20061;-51
2021/05/31 06:10:53;;;;;;;18.00;6.78;;;;;;;;;;5041868;28;20034;-53
2021/05/31 06:13:19;;;;;;;17.27;6.45;;;;;;;;;;5031006;28;20052;-47
2021/05/31 06:15:46;;;;;;;19.73;7.22;;;;;;;;;;5042881;28;20137;-53
2021/05/31 06:18:12;;;;;;;16.80;6.90;;;;;;;;;;5032303;28;20049;-54
2021/05/31 06:20:38;;;;;;;23.50;6.88;;;;;;;;;;5025112;28;20033;-50
2021/05/31 06:23:04;;;;;;;15.63;6.70;;;;;;;;;;5025125;28;20052;-56
2021/05/31 06:25:30;;;;;;;20.83;6.60;;;;;;;;;;5041676;28;20052;-55
2021/05/31 06:27:56;;;;;;;19.02;7.15;;;;;;;;;;5040293;28;20033;-55
2021/05/31 06:30:22;;;;;;;18.92;6.97;;;;;;;;;;5041063;28;20088;-55
2021/05/31 06:32:50;;;;;;;13.88;6.20;;;;;;;;;;5039441;28;20073;-54
2021/05/31 06:35:17;;;;;;;16.30;6.10;;;;;;;;;;5039180;28;20115;-50
2021/05/31 06:37:43;;;;;;;14.00;5.65;;;;;;;;;;5030276;28;20044;-56
2021/05/31 06:40:11;;;;;;;14.88;7.32;;;;;;;;;;5033949;28;20076;-54
2021/05/31 06:42:37;;;;;;;17.35;6.43;;;;;;;;;;5040495;28;20048;-56
2021/05/31 06:45:04;;;;;;;21.40;7.35;;;;;;;;;;5036062;28;20035;-54
2021/05/31 06:47:30;;;;;;;13.38;5.57;;;;;;;;;;5040462;28;20048;-55
2021/05/31 06:49:57;;;;;;;14.80;5.63;;;;;;;;;;5039405;28;20049;-53
2021/05/31 06:52:23;;;;;;;12.77;6.47;;;;;;;;;;5040290;28;20080;-55
2021/05/31 06:54:49;;;;;;;14.88;5.35;;;;;;;;;;5036882;28;20056;-54
2021/05/31 06:57:15;;;;;;;15.02;5.40;;;;;;;;;;5042188;28;20091;-48
2021/05/31 06:59:41;;;;;;;15.07;6.05;;;;;;;;;;5037731;28;20040;-55
2021/05/31 07:02:07;;;;;;;14.70;5.78;;;;;;;;;;5029715;28;20049;-51
2021/05/31 07:04:33;;;;;;;16.42;6.40;;;;;;;;;;5036904;28;20045;-49
2021/05/31 07:07:00;;;;;;;15.43;6.20;;;;;;;;;;5041188;28;20053;-53
2021/05/31 07:09:27;;;;;;;14.70;6.15;;;;;;;;;;5038344;28;20056;-52
2021/05/31 07:11:53;;;;;;;14.73;5.90;;;;;;;;;;5039433;28;20044;-54
2021/05/31 07:14:21;;;;;;;20.05;5.95;;;;;;;;;;5040553;28;20041;-51
2021/05/31 07:16:47;;;;;;;13.50;5.38;;;;;;;;;;5039967;28;20096;-54
2021/05/31 07:19:14;;;;;;;13.55;5.10;;;;;;;;;;5040754;28;20041;-56
2021/05/31 07:21:40;;;;;;;11.32;5.03;;;;;;;;;;5038098;28;20126;-55
2021/05/31 07:24:08;;;;;;;17.50;5.47;;;;;;;;;;5046673;28;20121;-54
2021/05/31 07:26:34;;;;;;;14.70;5.47;;;;;;;;;;5041656;28;20067;-55
2021/05/31 07:29:00;;;;;;;12.30;5.22;;;;;;;;;;5042126;28;20037;-55
2021/05/31 07:31:26;;;;;;;11.27;5.50;;;;;;;;;;5038339;28;20067;-53
2021/05/31 07:33:52;;;;;;;11.30;4.88;;;;;;;;;;5041138;28;20045;-55
2021/05/31 07:36:21;;;;;;;13.45;5.30;;;;;;;;;;5028719;28;20168;-55
2021/05/31 07:38:50;;;;;;;15.18;5.07;;;;;;;;;;5020449;28;20053;-56
2021/05/31 07:41:17;;;;;;;9.68;4.00;;;;;;;;;;5017764;28;20041;-56
2021/05/31 07:43:43;;;;;;;17.05;5.20;;;;;;;;;;5023820;28;20056;-57
2021/05/31 07:46:11;;;;;;;14.20;4.78;;;;;;;;;;5021438;28;20069;-56
2021/05/31 07:48:39;;;;;;;11.15;4.13;;;;;;;;;;5024572;28;20068;-56
2021/05/31 07:51:15;;;;;;;10.35;4.22;;;;;;;;;;5019887;28;20058;-56
2021/05/31 07:53:41;;;;;;;12.23;4.28;;;;;;;;;;5041489;28;20033;-53
2021/05/31 07:56:07;;;;;;;9.68;4.22;;;;;;;;;;5037508;28;20096;-55
2021/05/31 07:58:39;;;;;;;9.10;3.88;;;;;;;;;;5025506;28;20029;-56
2021/05/31 08:01:10;;;;;;;13.40;5.18;;;;;;;;;;5043130;28;20045;-58
2021/05/31 08:03:39;;;;;;;16.63;4.57;;;;;;;;;;5058792;28;20189;-56
2021/05/31 08:06:06;;;;;;;11.27;4.00;;;;;;;;;;5063522;28;20106;-57
2021/05/31 08:08:32;;;;;;;13.20;4.40;;;;;;;;;;5035751;28;20057;-58
2021/05/31 08:10:58;;;;;;;10.50;4.05;;;;;;;;;;5041532;28;20044;-58
2021/05/31 08:13:24;;;;;;;10.77;3.67;;;;;;;;;;5040463;28;20060;-57
2021/05/31 08:15:52;;;;;;;11.68;3.70;;;;;;;;;;5042173;28;20044;-56
2021/05/31 08:18:18;;;;;;;5.83;2.30;;;;;;;;;;5058646;28;20044;-55
2021/05/31 08:20:46;;;;;;;6.10;2.03;;;;;;;;;;5042152;28;20049;-53
2021/05/31 08:23:14;;;;;;;6.32;2.33;;;;;;;;;;5036879;28;20048;-54
2021/05/31 08:25:40;;;;;;;6.70;2.40;;;;;;;;;;5043994;28;20037;-54
2021/05/31 08:28:06;;;;;;;8.88;2.42;;;;;;;;;;5036915;28;20056;-56
2021/05/31 08:30:33;;;;;;;5.47;2.60;;;;;;;;;;5039700;28;20144;-57
2021/05/31 08:33:01;;;;;;;7.80;2.05;;;;;;;;;;5038921;28;20029;-53
2021/05/31 08:35:27;;;;;;;6.32;2.50;;;;;;;;;;5043583;28;20141;-54
2021/05/31 08:37:54;;;;;;;6.65;2.30;;;;;;;;;;5038925;28;20061;-57
2021/05/31 08:40:21;;;;;;;9.27;2.90;;;;;;;;;;5034347;28;20052;-55
2021/05/31 08:42:48;;;;;;;7.82;2.75;;;;;;;;;;5042970;28;20033;-54
2021/05/31 08:45:18;;;;;;;7.15;2.47;;;;;;;;;;5039063;28;20061;-57
2021/05/31 08:47:44;;;;;;;5.40;2.45;;;;;;;;;;5042181;28;20070;-54
2021/05/31 08:50:14;;;;;;;5.28;2.33;;;;;;;;;;5037482;28;20049;-56
2021/05/31 08:52:40;;;;;;;4.78;2.30;;;;;;;;;;5027075;28;20130;-57
2021/05/31 08:55:07;;;;;;;8.80;2.40;;;;;;;;;;5039801;28;20048;-57
2021/05/31 08:57:33;;;;;;;5.05;2.35;;;;;;;;;;5041647;28;20065;-57
2021/05/31 09:00:02;;;;;;;7.40;2.72;;;;;;;;;;5055492;28;20051;-53
2021/05/31 09:02:33;;;;;;;6.47;2.78;;;;;;;;;;5046628;28;20051;-58
2021/05/31 09:05:01;;;;;;;7.53;2.65;;;;;;;;;;5040302;28;20077;-57
2021/05/31 09:07:27;;;;;;;;;;;;;;;;;;5044614;28;20065;-55
2021/05/31 09:09:57;;;;;;;9.23;2.67;;;;;;;;;;5047982;28;19972;-57
2021/05/31 09:12:31;;;;;;;7.35;2.80;;;;;;;;;;5038000;28;20033;-57
2021/05/31 09:14:58;;;;;;;5.97;2.50;;;;;;;;;;5037817;28;20049;-55
2021/05/31 09:17:25;;;;;;;6.90;2.58;;;;;;;;;;5042272;28;20101;-57
2021/05/31 09:19:52;;;;;;;11.93;2.80;;;;;;;;;;5054911;28;20033;-57
2021/05/31 09:22:18;;;;;;;4.93;2.43;;;;;;;;;;5046513;28;20033;-56
2021/05/31 09:24:56;;;;;;;7.88;2.55;;;;;;;;;;5043857;28;20052;-56
2021/05/31 09:27:24;;;;;;;9.70;3.03;;;;;;;;;;5062472;28;20049;-56
2021/05/31 09:29:55;;;;;;;9.65;2.90;;;;;;;;;;5042823;28;20159;-57
2021/05/31 09:32:21;;;;;;;9.48;2.90;;;;;;;;;;5045646;28;20055;-57
2021/05/31 09:34:56;;;;;;;7.88;2.75;;;;;;;;;;5046396;28;20053;-57
2021/05/31 09:37:22;;;;;;;8.38;3.40;;;;;;;;;;5016797;28;20037;-55
2021/05/31 09:39:58;;;;;;;9.85;3.15;;;;;;;;;;5035027;28;20044;-58
2021/05/31 09:42:24;;;;;;;10.07;2.53;;;;;;;;;;5039372;28;20037;-58
2021/05/31 09:44:57;;;;;;;8.88;2.60;;;;;;;;;;5042835;28;20045;-57
2021/05/31 09:47:27;;;;;;;6.18;2.70;;;;;;;;;;5039891;28;20045;-58
2021/05/31 09:49:54;;;;;;;11.85;3.33;;;;;;;;;;5045583;28;20036;-58
2021/05/31 09:52:24;;;;;;;9.48;3.00;;;;;;;;;;5039153;28;20048;-57
2021/05/31 09:54:50;;;;;;;19.17;2.88;;;;;;;;;;5041023;28;20053;-56
2021/05/31 09:57:22;;;;;;;8.25;2.70;;;;;;;;;;5034665;28;20112;-58
2021/05/31 09:59:49;;;;;;;5.90;2.15;;;;;;;;;;5033779;28;20040;-58
2021/05/31 10:02:23;;;;;;;5.40;2.30;;;;;;;;;;5037743;28;20066;-58
2021/05/31 10:05:00;;;;;;;9.88;2.92;;;;;;;;;;5041713;28;20037;-59
2021/05/31 10:07:38;;;;;;;8.63;2.70;;;;;;;;;;5041206;28;20040;-56
2021/05/31 10:10:06;;;;;;;;;;;;;;;;;;5063638;28;20073;-58
2021/05/31 10:12:34;;;;;;;8.30;3.00;;;;;;;;;;5032738;28;19916;-58
2021/05/31 10:15:00;;;;;;;;;;;;;;;;;;5045888;28;20045;-58
2021/05/31 10:17:26;;;;;;;8.15;3.25;;;;;;;;;;5058113;28;19936;-59
2021/05/31 10:19:55;;;;;;;7.43;3.00;;;;;;;;;;5045566;28;20080;-59
2021/05/31 10:22:21;;;;;;;8.55;2.95;;;;;;;;;;5032030;28;20040;-59
2021/05/31 10:24:48;;;;;;;9.45;3.65;;;;;;;;;;5043256;28;20045;-59
2021/05/31 10:27:15;;;;;;;9.73;2.63;;;;;;;;;;5059409;28;20052;-59
2021/05/31 10:29:43;;;;;;;7.05;3.25;;;;;;;;;;5045126;28;20060;-59
2021/05/31 10:32:09;;;;;;;8.55;3.38;;;;;;;;;;5058048;28;20157;-58
2021/05/31 10:34:45;;;;;;;10.30;2.88;;;;;;;;;;5044364;28;20020;-58
2021/05/31 10:37:19;;;;;;;7.95;2.83;;;;;;;;;;5041185;28;20065;-57
2021/05/31 10:40:06;;;;;;;8.23;2.72;;;;;;;;;;5043260;28;20037;-59
2021/05/31 10:42:42;;;;;;;9.70;3.35;;;;;;;;;;5043683;28;20032;-57
2021/05/31 10:45:17;;;;;;;10.90;2.90;;;;;;;;;;5026776;28;20045;-60
2021/05/31 10:47:54;;;;;;;6.63;2.35;;;;;;;;;;5040928;28;20033;-56
2021/05/31 10:50:26;;;;;;;10.85;3.28;;;;;;;;;;5024305;28;20151;-56
2021/05/31 10:52:52;;;;;;;8.73;3.15;;;;;;;;;;5024828;28;20065;-60
2021/05/31 10:55:18;;;;;;;8.68;3.30;;;;;;;;;;5044593;28;20037;-59
2021/05/31 10:57:46;;;;;;;7.15;3.28;;;;;;;;;;5063593;28;20132;-58
2021/05/31 11:00:21;;;;;;;6.43;2.75;;;;;;;;;;5036299;28;20055;-59
2021/05/31 11:02:50;;;;;;;7.32;3.08;;;;;;;;;;5040888;28;20057;-57
2021/05/31 11:05:24;;;;;;;6.97;2.63;;;;;;;;;;5053899;28;20057;-58
2021/05/31 11:07:58;;;;;;;7.15;3.00;;;;;;;;;;5063438;28;20089;-57
2021/05/31 11:10:28;;;;;;;5.70;2.90;;;;;;;;;;5036510;28;20122;-58
2021/05/31 11:12:55;;;;;;;5.72;2.78;;;;;;;;;;5041476;28;20033;-60
2021/05/31 11:15:33;;;;;;;7.38;2.92;;;;;;;;;;5052564;28;20048;-54
2021/05/31 11:17:59;;;;;;;6.82;2.88;;;;;;;;;;5045469;28;20049;-56
2021/05/31 11:20:28;;;;;;;7.22;2.50;;;;;;;;;;5037929;28;20048;-62
2021/05/31 11:22:56;;;;;;;5.90;2.88;;;;;;;;;;5040229;28;20055;-56
2021/05/31 11:25:22;;;;;;;6.47;2.60;;;;;;;;;;5038033;28;20049;-55
2021/05/31 11:27:52;;;;;;;6.53;2.60;;;;;;;;;;5048392;28;20051;-60
2021/05/31 11:30:19;;;;;;;7.72;2.67;;;;;;;;;;5039954;28;20032;-59
2021/05/31 11:32:46;;;;;;;6.68;3.10;;;;;;;;;;5043411;28;20079;-58
2021/05/31 11:35:14;;;;;;;9.13;3.08;;;;;;;;;;5042315;28;20048;-58
2021/05/31 11:37:42;;;;;;;10.20;2.97;;;;;;;;;;5029724;28;20037;-57
2021/05/31 11:40:15;;;;;;;7.25;3.00;;;;;;;;;;5024325;28;20267;-57
2021/05/31 11:42:43;;;;;;;6.95;2.58;;;;;;;;;;5035978;28;20050;-57
2021/05/31 11:45:09;;;;;;;8.43;3.03;;;;;;;;;;5020233;28;20049;-57
2021/05/31 11:47:35;;;;;;;8.43;2.97;;;;;;;;;;5044687;28;20051;-55
2021/05/31 11:50:04;;;;;;;6.22;2.72;;;;;;;;;;5062479;28;20056;-59
2021/05/31 11:52:30;;;;;;;8.20;2.50;;;;;;;;;;5030497;28;20068;-59
2021/05/31 11:55:01;;;;;;;10.18;3.45;;;;;;;;;;5062046;28;20047;-58
2021/05/31 11:57:27;;;;;;;7.22;3.55;;;;;;;;;;5038840;28;20057;-56
2021/05/31 11:59:54;;;;;;;7.45;3.00;;;;;;;;;;5043977;28;20041;-56
2021/05/31 12:02:25;;;;;;;5.75;2.70;;;;;;;;;;5039810;28;20053;-56
2021/05/31 12:04:55;;;;;;;7.80;2.92;;;;;;;;;;5033471;28;20045;-56
2021/05/31 12:07:24;;;;;;;9.38;2.88;;;;;;;;;;5040547;28;20033;-56
2021/05/31 12:09:55;;;;;;;4.60;2.72;;;;;;;;;;5036126;28;20025;-58
2021/05/31 12:12:22;;;;;;;6.22;2.67;;;;;;;;;;5040697;28;20068;-59
2021/05/31 12:14:52;;;;;;;6.85;3.00;;;;;;;;;;5060275;28;20045;-57
2021/05/31 12:17:18;;;;;;;9.25;3.15;;;;;;;;;;5036875;28;20140;-57
2021/05/31 12:19:47;;;;;;;5.18;2.47;;;;;;;;;;5040088;28;20037;-57
2021/05/31 12:22:15;;;;;;;5.93;2.70;;;;;;;;;;5045483;28;20043;-58
2021/05/31 12:24:47;;;;;;;7.25;2.90;;;;;;;;;;5047016;28;20037;-57
2021/05/31 12:27:14;;;;;;;5.63;2.83;;;;;;;;;;5044000;28;20052;-55
2021/05/31 12:29:41;;;;;;;6.28;2.60;;;;;;;;;;5047153;28;20047;-59
2021/05/31 12:32:08;;;;;;;4.93;2.80;;;;;;;;;;5042669;28;20045;-59
2021/05/31 12:34:35;;;;;;;6.45;2.78;;;;;;;;;;5065246;28;20167;-59
2021/05/31 12:37:01;;;;;;;5.60;3.08;;;;;;;;;;5027538;28;20044;-59
2021/05/31 12:39:28;;;;;;;7.38;2.63;;;;;;;;;;5045535;28;20053;-58
2021/05/31 12:41:56;;;;;;;6.65;2.60;;;;;;;;;;5043584;28;21953;-57
2021/05/31 12:44:24;;;;;;;8.23;2.70;;;;;;;;;;5042485;28;20045;-57
2021/05/31 12:46:50;;;;;;;;;;;;;;;;;;5065361;28;20036;-58
2021/05/31 12:49:18;;;;;;;6.80;2.55;;;;;;;;;;5034689;28;19979;-57
2021/05/31 12:51:56;;;;;;;6.67;2.63;;;;;;;;;;5043727;28;20044;-57
2021/05/31 12:54:24;;;;;;;7.03;2.97;;;;;;;;;;5061172;28;20363;-60
2021/05/31 12:56:51;;;;;;;6.63;2.80;;;;;;;;;;5045411;28;20041;-60
2021/05/31 12:59:23;;;;;;;6.23;2.80;;;;;;;;;;5041016;28;20130;-60
2021/05/31 13:01:49;;;;;;;7.07;2.90;;;;;;;;;;5042889;28;20057;-59
2021/05/31 13:04:25;;;;;;;8.38;2.70;;;;;;;;;;5043555;28;20036;-61
2021/05/31 13:06:51;;;;;;;6.38;2.90;;;;;;;;;;5045837;28;20029;-57
2021/05/31 13:09:25;;;;;;;8.85;4.68;;;;;;;;;;5041505;28;20033;-58
2021/05/31 13:11:52;;;;;;;5.82;3.10;;;;;;;;;;5036315;28;20029;-59
2021/05/31 13:14:21;;;;;;;6.75;3.03;;;;;;;;;;5061321;28;20024;-58
2021/05/31 13:16:55;;;;;;;6.22;2.55;;;;;;;;;;5063110;28;20045;-59
2021/05/31 13:19:22;;;;;;;6.60;3.08;;;;;;;;;;5042683;28;20177;-58
2021/05/31 13:21:55;;;;;;;10.55;3.08;;;;;;;;;;5045657;28;20025;-60
2021/05/31 13:24:23;;;;;;;6.43;2.90;;;;;;;;;;5041660;28;20032;-57
2021/05/31 13:26:51;;;;;;;5.88;2.90;;;;;;;;;;5064119;28;20118;-59
2021/05/31 13:29:22;;;;;;;6.50;2.70;;;;;;;;;;5042179;28;20029;-58
2021/05/31 13:31:48;;;;;;;10.60;2.65;;;;;;;;;;5063393;28;20111;-61
2021/05/31 13:34:14;;;;;;;5.40;2.72;;;;;;;;;;5044730;28;20037;-60
2021/05/31 13:36:40;;;;;;;5.30;2.50;;;;;;;;;;5045763;28;20044;-58
2021/05/31 13:39:08;;;;;;;7.47;2.75;;;;;;;;;;5026446;28;20130;-59
2021/05/31 13:41:34;;;;;;;9.20;2.60;;;;;;;;;;5035653;28;20037;-58
2021/05/31 13:44:03;;;;;;;7.20;2.95;;;;;;;;;;5041556;28;20088;-60
2021/05/31 13:46:32;;;;;;;4.75;2.38;;;;;;;;;;5042231;28;20052;-57
2021/05/31 13:49:00;;;;;;;7.50;2.60;;;;;;;;;;5044162;28;20033;-59
2021/05/31 13:51:27;;;;;;;;;;;;;;;;;;5020510;28;20045;-60
2021/05/31 13:53:55;;;;;;;5.47;2.40;;;;;;;;;;5034861;28;19917;-59
2021/05/31 13:56:23;;;;;;;4.78;2.17;;;;;;;;;;5029761;28;20041;-56
2021/05/31 13:58:50;;;;;;;6.07;2.40;;;;;;;;;;5042621;28;20069;-58
2021/05/31 14:01:16;;;;;;;7.93;2.50;;;;;;;;;;5047250;28;20044;-59
2021/05/31 14:03:46;;;;;;;7.10;2.80;;;;;;;;;;5028492;28;20052;-60
2021/05/31 14:06:12;;;;;;;6.70;2.63;;;;;;;;;;5018579;28;20053;-58
2021/05/31 14:08:38;;;;;;;5.38;2.70;;;;;;;;;;5023072;28;20025;-59
2021/05/31 14:11:04;;;;;;;5.55;2.78;;;;;;;;;;5011711;28;20096;-58
2021/05/31 14:13:31;;;;;;;7.18;2.60;;;;;;;;;;5022400;28;20057;-60
2021/05/31 14:15:57;;;;;;;6.60;2.75;;;;;;;;;;5020179;28;20152;-59
2021/05/31 14:18:24;;;;;;;6.85;2.88;;;;;;;;;;5019870;28;20043;-59
2021/05/31 14:20:51;;;;;;;6.10;2.83;;;;;;;;;;5021585;28;20115;-61
2021/05/31 14:23:17;;;;;;;6.82;2.88;;;;;;;;;;5019872;28;20050;-59
2021/05/31 14:25:43;;;;;;;6.30;2.58;;;;;;;;;;5014149;28;20115;-60
2021/05/31 14:28:09;;;;;;;6.95;2.58;;;;;;;;;;5019846;28;20033;-59
2021/05/31 14:30:36;;;;;;;6.55;2.75;;;;;;;;;;5021529;28;20050;-60
2021/05/31 14:33:03;;;;;;;9.93;2.70;;;;;;;;;;5018965;28;20041;-61
2021/05/31 14:35:33;;;;;;;6.97;2.53;;;;;;;;;;5022250;28;20038;-61
2021/05/31 14:38:01;;;;;;;6.15;2.88;;;;;;;;;;5016784;28;20056;-61
2021/05/31 14:43:29;;;;;;;5.13;2.28;;;;;;;;;;5017301;28;20030;-54
2021/05/31 14:45:58;;;;;;;5.90;2.35;;;;;;;;;;5021264;28;20062;-60
2021/05/31 14:48:24;;;;;;;;;;;;;;;;;;5019899;28;20101;-59
2021/05/31 14:50:50;;;;;;;6.30;2.65;;;;;;;;;;5020665;28;19930;-62